Latest Coastal Weather Observations for Flinders Reef

IDQ60701

Issued at 5:42 pm EST Friday 12 February 2016 (issued every 10 minutes, with the page automatically refreshed every 10 minutes)

About coastal observations | Map of coastal stations | Coastal observations for QLD | Marine services | Other Formats
Station Details ID: 200783 Name: FLINDERS REEF Lat: -17.72 Lon: 148.45 Height: 2.6 m
Data from the previous 72 hours. | See also: Recent months at Flinders Reef
Date/Time
EST
Temp

°C
Wind Pressure Rain
since 9am
mm
Weather Cloud Vis
km
Sea
Height
m
Swell
Dir
 
Speed
knots
Gust
knots
hPa Trend Height
m
Period
s
Dir
12/05:30pm 28.4 SSE 19 22 1006.3 - - - - - - - - -
12/05:24pm 28.3 SSE 20 - 1006.2 - - - - - - - - -
12/05:00pm 28.2 SSE 21 27 1006.0 - - - - - - - - -
12/04:30pm 28.0 SSE 17 20 1005.9 - - - - - - - - -
12/04:24pm 27.9 SSE 15 - 1005.8 - - - - - - - - -
12/04:00pm 27.2 SE 13 17 1006.0 - - - - - - - - -
12/03:30pm 28.1 SSE 16 24 1005.9 - - - - - - - - -
12/03:24pm 28.0 SSE 15 - 1005.8 - - - - - - - - -
12/03:07pm 27.4 SE 21 26 1005.9 - - - - - - - - -
12/03:00pm 28.4 S 17 20 1006.0 - - - - - - - - -
12/02:30pm 27.9 SSE 19 23 1006.2 - - - - - - - - -
12/02:24pm 27.8 SSE 20 - 1006.2 - - - - - - - - -
12/02:00pm 28.5 S 17 21 1006.3 - - - - - - - - -
12/01:30pm 28.7 S 18 21 1006.6 - - - - - - - - -
12/01:24pm 28.6 S 18 - 1006.6 - - - - - - - - -
12/01:00pm 28.5 S 18 21 1007.0 - - - - - - - - -
12/12:30pm 28.6 S 16 19 1007.3 - - - - - - - - -
12/12:24pm 28.7 S 16 - 1007.3 - - - - - - - - -
12/12:00pm 28.6 S 16 18 1007.8 - - - - - - - - -
12/11:30am 28.6 S 17 19 1008.2 - - - - - - - - -
12/11:24am 28.5 S 17 - 1008.2 - - - - - - - - -
12/11:00am 28.6 S 17 19 1008.5 - - - - - - - - -
12/10:30am 28.5 S 17 19 1008.8 - - - - - - - - -
12/10:24am 28.7 S 17 - 1008.8 - - - - - - - - -
12/10:00am 28.6 S 17 19 1009.0 - - - - - - - - -
12/09:30am 28.3 S 15 19 1009.2 - - - - - - - - -
12/09:24am 28.2 S 16 - 1009.1 - - - - - - - - -
12/09:00am 28.5 S 15 18 1009.1 - - - - - - - - -
12/08:30am 28.5 S 16 19 1008.9 - - - - - - - - -
12/08:24am 28.6 S 16 - 1008.9 - - - - - - - - -
12/08:00am 28.6 S 17 21 1008.7 - - - - - - - - -
12/07:30am 28.5 S 16 18 1008.5 - - - - - - - - -
12/07:24am 28.5 S 16 - 1008.4 - - - - - - - - -
12/07:00am 28.4 S 17 21 1008.3 - - - - - - - - -
12/06:30am 28.3 S 17 20 1008.0 - - - - - - - - -
12/06:24am 28.3 S 16 - 1007.9 - - - - - - - - -
12/06:00am 28.2 S 17 19 1007.8 - - - - - - - - -
12/05:30am 28.3 S 14 17 1007.5 - - - - - - - - -
12/05:24am 28.1 S 15 - 1007.4 - - - - - - - - -
12/05:00am 28.3 S 16 18 1007.4 - - - - - - - - -
12/04:30am 28.3 SSE 14 17 1007.1 - - - - - - - - -
12/04:24am 28.2 SSE 14 - 1007.1 - - - - - - - - -
12/04:00am 28.3 SSE 13 16 1007.1 - - - - - - - - -
12/03:30am 28.4 SSE 15 17 1006.9 - - - - - - - - -
12/03:24am 28.3 SSE 15 - 1006.8 - - - - - - - - -
12/03:00am 28.1 SSE 14 17 1006.9 - - - - - - - - -
12/02:30am 28.2 SSE 14 17 1006.9 - - - - - - - - -
12/02:24am 28.1 SSE 14 - 1006.9 - - - - - - - - -
12/02:00am 28.3 SSE 15 18 1007.1 - - - - - - - - -
12/01:30am 28.2 SSE 15 17 1007.2 - - - - - - - - -
12/01:24am 28.1 SSE 15 - 1007.3 - - - - - - - - -
12/01:00am 28.4 SE 14 17 1007.6 - - - - - - - - -
12/12:30am 28.3 SE 15 17 1007.9 - - - - - - - - -
12/12:24am 28.7 SE 14 - 1007.8 - - - - - - - - -
12/12:00am 28.4 SSE 15 18 1008.2 - - - - - - - - -
 
Date/Time
EST
Temp

°C
Wind Pressure Rain
since 9am
mm
Weather Cloud Vis
km
Sea
Height
m
Swell
Dir
 
Speed
knots
Gust
knots
hPa Trend Height
m
Period
s
Dir
11/11:30pm 28.5 SE 15 17 1008.3 - - - - - - - - -
11/11:24pm 28.3 SE 16 - 1008.2 - - - - - - - - -
11/11:00pm 28.2 SE 15 17 1008.6 - - - - - - - - -
11/10:30pm 28.6 SE 15 19 1008.9 - - - - - - - - -
11/10:24pm 28.4 SE 15 - 1008.7 - - - - - - - - -
11/10:00pm 28.3 SSE 15 18 1008.9 - - - - - - - - -
11/09:30pm 28.4 SSE 16 18 1008.7 - - - - - - - - -
11/09:24pm 28.4 SSE 16 - 1008.6 - - - - - - - - -
11/09:00pm 28.4 SE 17 20 1008.6 - - - - - - - - -
11/08:30pm 28.3 SSE 16 19 1008.3 - - - - - - - - -
11/08:24pm 28.4 SSE 17 - 1008.2 - - - - - - - - -
11/08:00pm 28.5 SSE 16 19 1008.1 - - - - - - - - -
11/07:30pm 28.5 SE 15 17 1008.0 - - - - - - - - -
11/07:24pm 28.7 SSE 15 - 1007.8 - - - - - - - - -
11/07:00pm 28.7 SSE 16 18 1007.7 - - - - - - - - -
11/06:30pm 28.5 SE 16 19 1007.1 - - - - - - - - -
11/06:24pm 28.6 SE 16 - 1006.9 - - - - - - - - -
11/06:00pm 28.5 SSE 17 19 1006.8 - - - - - - - - -
11/05:30pm 28.5 SSE 15 18 1006.6 - - - - - - - - -
11/05:24pm 28.6 SSE 15 - 1006.4 - - - - - - - - -
11/05:00pm 28.6 SSE 16 18 1006.4 - - - - - - - - -
11/04:30pm 28.8 SSE 17 20 1006.2 - - - - - - - - -
11/04:24pm 28.6 SSE 16 - 1006.1 - - - - - - - - -
11/04:00pm 28.6 SSE 16 19 1006.1 - - - - - - - - -
11/03:30pm 28.5 SSE 16 18 1006.1 - - - - - - - - -
11/03:24pm 28.6 SSE 16 - 1006.0 - - - - - - - - -
11/03:00pm 28.4 S 17 19 1006.1 - - - - - - - - -
11/02:30pm 28.8 SSE 15 17 1006.3 - - - - - - - - -
11/02:24pm 28.7 SSE 15 - 1006.2 - - - - - - - - -
11/02:00pm 28.7 SSE 13 15 1006.5 - - - - - - - - -
11/01:30pm 28.4 SSE 14 16 1006.7 - - - - - - - - -
11/01:24pm 28.5 SSE 15 - 1006.7 - - - - - - - - -
11/01:00pm 28.4 SSE 14 16 1007.0 - - - - - - - - -
11/12:30pm 28.4 SSE 14 17 1007.4 - - - - - - - - -
11/12:24pm 28.4 SE 14 - 1007.3 - - - - - - - - -
11/12:00pm 28.4 SE 15 17 1007.7 - - - - - - - - -
11/11:30am 28.5 SSE 16 19 1008.1 - - - - - - - - -
11/11:24am 28.2 SSE 15 - 1008.0 - - - - - - - - -
11/11:00am 28.5 SSE 15 17 1008.4 - - - - - - - - -
11/10:30am 28.6 SSE 13 15 1008.6 - - - - - - - - -
11/10:24am 28.5 SSE 13 - 1008.5 - - - - - - - - -
11/10:00am 28.7 SE 12 15 1008.7 - - - - - - - - -
11/09:30am 28.5 SE 15 17 1008.7 - - - - - - - - -
11/09:24am 28.2 SE 15 - 1008.5 - - - - - - - - -
11/09:00am 28.3 SE 15 18 1008.7 - - - - - - - - -
11/08:30am 28.2 SE 16 19 1008.5 - - - - - - - - -
11/08:24am 28.3 SE 16 - 1008.4 - - - - - - - - -
11/08:00am 27.9 SE 18 21 1008.1 - - - - - - - - -
11/07:30am 28.2 SE 15 19 1007.8 - - - - - - - - -
11/07:24am 28.1 SE 14 - 1007.7 - - - - - - - - -
11/07:00am 28.1 SE 14 17 1007.5 - - - - - - - - -
11/06:30am 26.9 SE 16 22 1007.2 - - - - - - - - -
11/06:24am 27.7 SE 16 - 1007.0 - - - - - - - - -
11/06:00am 27.7 SE 17 19 1006.8 - - - - - - - - -
11/05:30am 27.7 SE 20 23 1006.4 - - - - - - - - -
11/05:24am 27.7 SE 21 - 1006.3 - - - - - - - - -
11/05:00am 28.1 SSE 17 20 1006.1 - - - - - - - - -
11/04:30am 28.1 SE 17 20 1006.0 - - - - - - - - -
11/04:24am 28.2 SSE 17 - 1005.9 - - - - - - - - -
11/04:00am 28.4 SSE 18 21 1005.8 - - - - - - - - -
11/03:30am 28.1 SE 19 23 1005.5 - - - - - - - - -
11/03:24am 28.1 SSE 20 - 1005.5 - - - - - - - - -
11/03:00am 28.3 SSE 19 22 1005.8 - - - - - - - - -
11/02:30am 28.4 SE 19 21 1006.0 - - - - - - - - -
11/02:24am 28.2 SE 19 - 1005.9 - - - - - - - - -
11/02:00am 28.4 SSE 19 21 1006.2 - - - - - - - - -
11/01:30am 28.3 SE 18 21 1006.5 - - - - - - - - -
11/01:24am 28.3 SE 17 - 1006.4 - - - - - - - - -
11/01:00am 28.4 SE 17 20 1006.8 - - - - - - - - -
11/12:30am 28.3 SE 18 21 1006.9 - - - - - - - - -
11/12:24am 28.4 SE 18 - 1006.9 - - - - - - - - -
11/12:00am 28.5 SE 19 21 1007.3 - - - - - - - - -
 
Date/Time
EST
Temp

°C
Wind Pressure Rain
since 9am
mm
Weather Cloud Vis
km
Sea
Height
m
Swell
Dir
 
Speed
knots
Gust
knots
hPa Trend Height
m
Period
s
Dir
10/11:30pm 28.4 SE 18 23 1007.6 - - - - - - - - -
10/11:24pm 28.3 SE 17 - 1007.5 - - - - - - - - -
10/11:00pm 28.5 SE 19 22 1007.9 - - - - - - - - -
10/10:30pm 28.4 SE 20 23 1008.1 - - - - - - - - -
10/10:24pm 28.4 SE 20 - 1007.9 - - - - - - - - -
10/10:00pm 28.5 SE 19 22 1008.1 - - - - - - - - -
10/09:30pm 28.3 SE 19 23 1008.1 - - - - - - - - -
10/09:24pm 28.7 SE 20 - 1008.0 - - - - - - - - -
10/09:00pm 28.6 SE 19 22 1008.0 - - - - - - - - -
10/08:30pm 28.4 SE 20 24 1007.8 - - - - - - - - -
10/08:24pm 28.7 SSE 20 - 1007.7 - - - - - - - - -
10/08:00pm 28.4 SE 20 23 1007.6 - - - - - - - - -
10/07:30pm 28.6 SE 20 24 1007.5 - - - - - - - - -
10/07:24pm 28.5 SE 20 - 1007.3 - - - - - - - - -
10/07:00pm 28.5 SE 19 23 1007.2 - - - - - - - - -
10/06:30pm 28.5 SE 21 25 1006.9 - - - - - - - - -
10/06:24pm 28.5 SE 21 - 1006.8 - - - - - - - - -
10/06:00pm 28.7 SSE 21 24 1006.5 - - - - - - - - -
10/05:30pm 28.8 SSE 22 25 1006.1 - - - - - - - - -
10/05:24pm 28.9 SSE 22 - 1005.9 - - - - - - - - -
10/05:00pm 28.7 SSE 21 24 1005.8 - - - - - - - - -
10/04:30pm 28.9 SSE 22 25 1005.5 - - - - - - - - -
10/04:24pm 28.7 SSE 22 - 1005.5 - - - - - - - - -
10/04:00pm 28.7 SSE 22 26 1005.5 - - - - - - - - -
10/03:30pm 28.6 SSE 21 24 1005.6 - - - - - - - - -
10/03:24pm 28.6 SSE 20 - 1005.6 - - - - - - - - -
10/03:00pm 28.6 SSE 20 23 1005.7 - - - - - - - - -
10/02:30pm 28.6 SSE 20 23 1005.7 - - - - - - - - -
10/02:24pm 28.7 SSE 20 - 1005.7 - - - - - - - - -
10/02:00pm 28.3 SE 18 21 1006.1 - - - - - - - - -
10/01:30pm 28.4 SE 19 24 1006.5 - - - - - - - - -
10/01:24pm 28.2 SE 17 - 1006.4 - - - - - - - - -
10/01:00pm 27.9 SE 18 21 1006.7 - - - - - - - - -
10/12:30pm 28.6 SE 18 22 1006.9 - - - - - - - - -
10/12:24pm 28.5 SE 16 - 1007.0 - - - - - - - - -
10/12:00pm 28.3 SE 18 24 1007.3 - - - - - - - - -
10/11:30am 27.7 ESE 18 23 1007.4 - - - - - - - - -
10/11:24am 27.8 ESE 19 - 1007.4 - - - - - - - - -
10/11:00am 27.7 SSE 19 22 1007.8 - - - - - - - - -
10/10:30am 28.5 SE 22 25 1007.9 - - - - - - - - -
10/10:24am 28.3 SE 21 - 1007.8 - - - - - - - - -
10/10:00am 28.7 SE 18 22 1007.9 - - - - - - - - -
10/09:30am 28.9 SE 21 24 1008.1 - - - - - - - - -
10/09:24am 28.8 SE 21 - 1008.0 - - - - - - - - -
10/09:00am 28.6 SE 20 23 1008.2 - - - - - - - - -
10/08:30am 28.7 SE 21 24 1008.0 - - - - - - - - -
10/08:24am 28.6 SE 21 - 1007.8 - - - - - - - - -
10/08:00am 28.8 SSE 22 25 1007.5 - - - - - - - - -
10/07:30am 28.5 SE 22 25 1007.0 - - - - - - - - -
10/07:24am 28.2 SE 21 - 1006.9 - - - - - - - - -
10/07:00am 28.2 SSE 23 27 1006.8 - - - - - - - - -
10/06:30am 28.1 SE 24 27 1006.2 - - - - - - - - -
10/06:24am 28.2 SE 23 - 1006.0 - - - - - - - - -
10/06:00am 28.4 SE 22 25 1005.9 - - - - - - - - -
10/05:30am 28.4 SE 22 25 1005.7 - - - - - - - - -
10/05:24am 28.4 SSE 22 - 1005.4 - - - - - - - - -
10/05:00am 28.4 SSE 22 25 1005.5 - - - - - - - - -
10/04:30am 28.5 SSE 21 23 1005.3 - - - - - - - - -
10/04:24am 28.5 SE 21 - 1005.3 - - - - - - - - -
10/04:00am 28.6 SE 21 24 1005.3 - - - - - - - - -
10/03:30am 28.4 SE 21 24 1005.3 - - - - - - - - -
10/03:24am 28.5 SE 21 - 1005.2 - - - - - - - - -
10/03:00am 28.6 SE 22 26 1005.3 - - - - - - - - -
10/02:30am 28.7 SE 22 26 1005.4 - - - - - - - - -
10/02:24am 28.6 SE 23 - 1005.4 - - - - - - - - -
10/02:00am 28.7 SSE 22 25 1005.7 - - - - - - - - -
10/01:30am 28.6 SE 23 29 1006.0 - - - - - - - - -
10/01:24am 28.6 SSE 24 - 1005.8 - - - - - - - - -
10/01:00am 28.5 SE 24 28 1006.0 - - - - - - - - -
10/12:30am 28.5 SE 24 28 1006.5 - - - - - - - - -
10/12:24am 28.6 SE 24 - 1006.4 - - - - - - - - -
10/12:00am 29.0 SSE 24 28 1006.7 - - - - - - - - -
 
Date/Time
EST
Temp

°C
Wind Pressure Rain
since 9am
mm
Weather Cloud Vis
km
Sea
Height
m
Swell
Dir
 
Speed
knots
Gust
knots
hPa Trend Height
m
Period
s
Dir
09/11:30pm 28.9 SE 23 27 1007.2 - - - - - - - - -
09/11:24pm 28.9 SE 23 - 1007.2 - - - - - - - - -
09/11:00pm 28.9 SE 24 27 1007.6 - - - - - - - - -
09/10:30pm 28.9 SE 24 28 1008.1 - - - - - - - - -
09/10:24pm 28.8 SE 25 - 1007.9 - - - - - - - - -
09/10:00pm 29.0 SE 24 28 1008.2 - - - - - - - - -
09/09:30pm 29.1 SE 24 28 1008.1 - - - - - - - - -
09/09:24pm 29.0 SE 25 - 1007.8 - - - - - - - - -
09/09:00pm 29.0 SE 25 30 1007.9 - - - - - - - - -
09/08:30pm 29.0 SE 27 32 1007.8 - - - - - - - - -
09/08:24pm 29.0 SE 27 - 1007.5 - - - - - - - - -
09/08:00pm 29.0 SE 26 31 1007.6 - - - - - - - - -
09/07:30pm 28.7 SSE 26 32 1007.0 - - - - - - - - -
09/07:24pm 28.8 SE 25 - 1006.9 - - - - - - - - -
09/07:00pm 28.7 SSE 28 31 1006.9 - - - - - - - - -
09/06:30pm 28.6 SE 27 31 1006.7 - - - - - - - - -
09/06:24pm 28.4 SE 27 - 1006.6 - - - - - - - - -
09/06:00pm 28.8 SSE 26 32 1006.7 - - - - - - - - -

Other Formats:

Comma delimited format used in spreadsheet applications
http://www.bom.gov.au/fwo/IDQ60701/IDQ60701.94290.axf

JavaScript Object Notation format (JSON) in row-major order
http://www.bom.gov.au/fwo/IDQ60701/IDQ60701.94290.json